createdAt,value
2024-05-09T00:00:50.009Z,39.16
2024-05-09T00:11:18.488Z,39.07
2024-05-09T00:21:26.203Z,38.94
2024-05-09T00:31:33.042Z,38.77
2024-05-09T00:41:40.250Z,38.68
2024-05-09T00:51:48.240Z,38.51
2024-05-09T01:01:55.695Z,38.30
2024-05-09T01:12:02.641Z,38.10
2024-05-09T01:22:10.012Z,37.98
2024-05-09T01:32:17.007Z,37.85
2024-05-09T01:42:24.053Z,37.72
2024-05-09T01:52:30.981Z,37.59
2024-05-09T02:02:38.178Z,37.43
2024-05-09T02:12:45.141Z,37.39
2024-05-09T02:22:52.304Z,37.37
2024-05-09T02:32:59.861Z,37.20
2024-05-09T02:43:08.537Z,37.15
2024-05-09T02:53:17.456Z,37.04
2024-05-09T03:03:25.189Z,37.00
2024-05-09T03:13:32.624Z,36.84
2024-05-09T03:23:42.142Z,36.80
2024-05-09T03:33:49.312Z,36.66
2024-05-09T03:43:56.645Z,36.51
2024-05-09T03:54:04.143Z,36.46
2024-05-09T04:04:11.292Z,36.33
2024-05-09T04:14:18.359Z,36.23
2024-05-09T04:24:25.102Z,36.11
2024-05-09T04:34:31.884Z,36.14
2024-05-09T04:44:39.876Z,36.08
2024-05-09T04:54:47.025Z,36.18
2024-05-09T05:04:57.575Z,36.34
2024-05-09T05:15:12.047Z,36.50
2024-05-09T05:25:19.320Z,36.53
2024-05-09T05:35:26.044Z,36.60
2024-05-09T05:45:33.227Z,36.56
2024-05-09T05:55:42.006Z,36.51
2024-05-09T06:05:56.792Z,36.55
2024-05-09T06:16:05.172Z,36.49
2024-05-09T06:26:11.800Z,36.42
2024-05-09T06:36:18.756Z,36.34
2024-05-09T06:46:27.042Z,36.42
2024-05-09T06:56:34.345Z,36.55
2024-05-09T07:06:42.265Z,36.55
2024-05-09T07:16:49.947Z,36.63
2024-05-09T07:26:57.996Z,37.19
2024-05-09T07:37:06.274Z,37.93
2024-05-09T07:48:28.026Z,38.02
2024-05-09T07:57:40.732Z,37.87
2024-05-09T08:07:47.870Z,37.94
2024-05-09T08:17:54.814Z,37.77
2024-05-09T08:28:02.391Z,37.72
2024-05-09T08:38:10.165Z,37.63
2024-05-09T08:48:17.620Z,37.83
2024-05-09T08:58:25.637Z,37.59
2024-05-09T09:08:32.748Z,37.04
2024-05-09T09:18:40.539Z,37.00
2024-05-09T09:28:48.022Z,37.05
2024-05-09T09:38:56.315Z,36.85
2024-05-09T09:49:03.707Z,36.82
2024-05-09T09:59:14.918Z,36.60
2024-05-09T10:09:23.579Z,36.60
2024-05-09T10:19:31.883Z,36.68
2024-05-09T10:29:39.119Z,36.65
2024-05-09T10:39:46.330Z,36.68
2024-05-09T10:49:53.253Z,36.58
2024-05-09T11:00:02.477Z,36.65
2024-05-09T11:10:14.554Z,36.70
2024-05-09T11:20:29.114Z,36.78
2024-05-09T11:30:37.063Z,36.73
2024-05-09T11:40:44.214Z,36.48
2024-05-09T11:50:51.059Z,36.42
2024-05-09T12:00:58.200Z,36.41
2024-05-09T12:11:05.914Z,36.39
2024-05-09T12:21:16.901Z,36.46
2024-05-09T12:31:23.788Z,36.50
2024-05-09T12:41:30.411Z,36.23
2024-05-09T12:51:37.023Z,36.26
2024-05-09T13:01:43.911Z,35.77
2024-05-09T13:11:50.510Z,35.79
2024-05-09T13:21:58.255Z,35.97
2024-05-09T13:32:05.130Z,36.08
2024-05-09T13:42:12.638Z,35.77
2024-05-09T13:52:20.667Z,35.64
2024-05-09T14:02:27.930Z,35.55
2024-05-09T14:12:34.825Z,35.49
2024-05-09T14:22:57.711Z,35.29
2024-05-09T14:33:05.723Z,35.14
2024-05-09T14:43:14.516Z,34.99
2024-05-09T14:53:23.809Z,35.04
2024-05-09T15:03:30.848Z,34.82
2024-05-09T15:13:37.676Z,34.84
2024-05-09T15:23:44.379Z,34.88
2024-05-09T15:33:51.507Z,35.25
2024-05-09T15:43:58.587Z,35.06
2024-05-09T15:54:06.714Z,35.03
2024-05-09T16:04:15.143Z,35.05
2024-05-09T16:14:22.076Z,35.03
2024-05-09T16:24:28.744Z,35.30
2024-05-09T16:34:35.439Z,35.22
2024-05-09T16:44:42.176Z,35.28
2024-05-09T16:54:49.333Z,35.69
2024-05-09T17:04:56.295Z,36.10
2024-05-09T17:15:06.480Z,36.22
2024-05-09T17:25:17.282Z,36.17
2024-05-09T17:35:24.662Z,35.92
2024-05-09T17:45:42.197Z,35.80
2024-05-09T17:55:49.149Z,35.84
2024-05-09T18:05:55.947Z,35.86
2024-05-09T18:16:04.451Z,36.05
2024-05-09T18:26:11.265Z,36.15
2024-05-09T18:36:19.011Z,36.35
2024-05-09T18:46:26.021Z,36.54
2024-05-09T18:56:32.884Z,36.38
2024-05-09T19:06:40.782Z,37.10
2024-05-09T19:16:47.339Z,37.15
2024-05-09T19:26:56.278Z,37.14
2024-05-09T19:37:03.411Z,37.00
2024-05-09T19:47:12.368Z,36.88
2024-05-09T19:57:20.611Z,36.68
2024-05-09T20:07:27.553Z,36.45
2024-05-09T20:17:34.271Z,36.49
2024-05-09T20:27:41.300Z,36.15
2024-05-09T20:37:47.768Z,36.20
2024-05-09T20:47:55.880Z,36.01
2024-05-09T20:58:02.795Z,35.85
2024-05-09T21:08:10.280Z,35.85
2024-05-09T21:18:17.438Z,35.76
2024-05-09T21:28:24.993Z,35.66
2024-05-09T21:38:32.111Z,35.66
2024-05-09T21:48:39.731Z,35.58
2024-05-09T21:58:46.163Z,35.63
2024-05-09T22:08:52.703Z,35.42
2024-05-09T22:18:59.648Z,35.55
2024-05-09T22:29:06.512Z,35.85
2024-05-09T22:39:12.893Z,35.67
2024-05-09T22:49:19.956Z,35.77
2024-05-09T22:59:27.150Z,35.99
2024-05-09T23:09:33.833Z,35.87
2024-05-09T23:19:40.568Z,35.91
2024-05-09T23:30:00.616Z,35.89
2024-05-09T23:40:09.997Z,35.71
2024-05-09T23:50:23.987Z,35.71
